sensor_id;sensor_type;location;lat;lon;timestamp;temperature;humidity
45096;DHT22;30858;51.108;8.068;2023-02-01T00:00:18;4.90;99.90
45096;DHT22;30858;51.108;8.068;2023-02-01T00:02:44;4.90;99.90
45096;DHT22;30858;51.108;8.068;2023-02-01T00:05:10;4.90;99.90
45096;DHT22;30858;51.108;8.068;2023-02-01T00:07:36;5.00;99.90
45096;DHT22;30858;51.108;8.068;2023-02-01T00:10:03;5.00;99.90
45096;DHT22;30858;51.108;8.068;2023-02-01T00:12:30;5.00;99.90
45096;DHT22;30858;51.108;8.068;2023-02-01T00:14:55;5.00;99.90
45096;DHT22;30858;51.108;8.068;2023-02-01T00:17:21;5.00;99.90
45096;DHT22;30858;51.108;8.068;2023-02-01T00:19:46;5.00;99.90
45096;DHT22;30858;51.108;8.068;2023-02-01T00:22:12;5.00;99.90
45096;DHT22;30858;51.108;8.068;2023-02-01T00:24:37;5.10;99.90
45096;DHT22;30858;51.108;8.068;2023-02-01T00:27:03;5.10;99.90
45096;DHT22;30858;51.108;8.068;2023-02-01T00:29:28;5.10;99.90
45096;DHT22;30858;51.108;8.068;2023-02-01T00:31:54;5.10;99.90
45096;DHT22;30858;51.108;8.068;2023-02-01T00:34:20;5.10;99.90
45096;DHT22;30858;51.108;8.068;2023-02-01T00:36:46;5.10;99.90
45096;DHT22;30858;51.108;8.068;2023-02-01T00:39:12;5.10;99.90
45096;DHT22;30858;51.108;8.068;2023-02-01T00:41:38;5.10;99.90
45096;DHT22;30858;51.108;8.068;2023-02-01T00:44:03;5.10;99.90
45096;DHT22;30858;51.108;8.068;2023-02-01T00:46:29;5.10;99.90
45096;DHT22;30858;51.108;8.068;2023-02-01T00:48:55;5.00;99.90
45096;DHT22;30858;51.108;8.068;2023-02-01T00:51:24;5.10;99.90
45096;DHT22;30858;51.108;8.068;2023-02-01T00:53:50;5.10;99.90
45096;DHT22;30858;51.108;8.068;2023-02-01T00:56:16;5.10;99.90
45096;DHT22;30858;51.108;8.068;2023-02-01T00:58:42;5.10;99.90
45096;DHT22;30858;51.108;8.068;2023-02-01T01:03:37;5.20;99.90
45096;DHT22;30858;51.108;8.068;2023-02-01T01:06:09;5.20;99.90
45096;DHT22;30858;51.108;8.068;2023-02-01T01:08:35;5.10;99.90
45096;DHT22;30858;51.108;8.068;2023-02-01T01:11:09;5.10;99.90
45096;DHT22;30858;51.108;8.068;2023-02-01T01:13:35;5.10;99.90
45096;DHT22;30858;51.108;8.068;2023-02-01T01:16:03;5.10;99.90
45096;DHT22;30858;51.108;8.068;2023-02-01T01:18:30;5.10;99.90
45096;DHT22;30858;51.108;8.068;2023-02-01T01:20:56;5.10;99.90
45096;DHT22;30858;51.108;8.068;2023-02-01T01:23:21;5.10;99.90
45096;DHT22;30858;51.108;8.068;2023-02-01T01:25:47;5.00;99.90
45096;DHT22;30858;51.108;8.068;2023-02-01T01:28:12;5.00;99.90
45096;DHT22;30858;51.108;8.068;2023-02-01T01:30:38;5.00;99.90
45096;DHT22;30858;51.108;8.068;2023-02-01T01:33:04;4.90;99.90
45096;DHT22;30858;51.108;8.068;2023-02-01T01:38:02;5.00;99.90
45096;DHT22;30858;51.108;8.068;2023-02-01T01:40:29;5.00;99.90
45096;DHT22;30858;51.108;8.068;2023-02-01T01:42:55;5.00;99.90
45096;DHT22;30858;51.108;8.068;2023-02-01T01:48:11;5.00;99.90
45096;DHT22;30858;51.108;8.068;2023-02-01T01:50:45;5.00;99.90
45096;DHT22;30858;51.108;8.068;2023-02-01T01:53:16;4.90;99.90
45096;DHT22;30858;51.108;8.068;2023-02-01T01:55:44;4.90;99.90
45096;DHT22;30858;51.108;8.068;2023-02-01T01:58:16;4.90;99.90
45096;DHT22;30858;51.108;8.068;2023-02-01T02:00:44;4.90;99.90
45096;DHT22;30858;51.108;8.068;2023-02-01T02:03:21;4.90;99.90
45096;DHT22;30858;51.108;8.068;2023-02-01T02:05:52;4.90;99.90
45096;DHT22;30858;51.108;8.068;2023-02-01T02:08:20;4.90;99.90
45096;DHT22;30858;51.108;8.068;2023-02-01T02:10:50;4.90;99.90
45096;DHT22;30858;51.108;8.068;2023-02-01T02:13:38;5.00;99.90
45096;DHT22;30858;51.108;8.068;2023-02-01T02:27:06;4.90;99.90
45096;DHT22;30858;51.108;8.068;2023-02-01T02:29:56;4.80;99.90
45096;DHT22;30858;51.108;8.068;2023-02-01T02:37:54;4.80;99.90
45096;DHT22;30858;51.108;8.068;2023-02-01T02:40:46;4.80;99.90
45096;DHT22;30858;51.108;8.068;2023-02-01T02:43:32;4.80;99.90
45096;DHT22;30858;51.108;8.068;2023-02-01T02:46:38;4.90;99.90
45096;DHT22;30858;51.108;8.068;2023-02-01T02:49:32;4.90;99.90
45096;DHT22;30858;51.108;8.068;2023-02-01T02:52:03;4.90;99.90
45096;DHT22;30858;51.108;8.068;2023-02-01T02:54:50;4.90;99.90
45096;DHT22;30858;51.108;8.068;2023-02-01T02:57:32;5.00;99.90
45096;DHT22;30858;51.108;8.068;2023-02-01T03:00:18;5.00;99.90
45096;DHT22;30858;51.108;8.068;2023-02-01T03:03:04;5.00;99.90
45096;DHT22;30858;51.108;8.068;2023-02-01T03:05:50;5.00;99.90
45096;DHT22;30858;51.108;8.068;2023-02-01T03:10:53;4.80;99.90
45096;DHT22;30858;51.108;8.068;2023-02-01T03:13:28;4.90;99.90
45096;DHT22;30858;51.108;8.068;2023-02-01T03:16:16;4.80;99.90
45096;DHT22;30858;51.108;8.068;2023-02-01T03:18:50;4.80;99.90
45096;DHT22;30858;51.108;8.068;2023-02-01T03:21:41;4.60;99.90
45096;DHT22;30858;51.108;8.068;2023-02-01T03:26:38;4.60;99.90
45096;DHT22;30858;51.108;8.068;2023-02-01T03:29:09;4.50;99.90
45096;DHT22;30858;51.108;8.068;2023-02-01T03:31:37;4.50;99.90
45096;DHT22;30858;51.108;8.068;2023-02-01T03:34:03;4.50;99.90
45096;DHT22;30858;51.108;8.068;2023-02-01T03:36:34;4.50;99.90
45096;DHT22;30858;51.108;8.068;2023-02-01T03:39:24;4.50;99.90
45096;DHT22;30858;51.108;8.068;2023-02-01T03:41:59;4.60;99.90
45096;DHT22;30858;51.108;8.068;2023-02-01T03:47:25;4.60;99.90
45096;DHT22;30858;51.108;8.068;2023-02-01T03:50:03;4.60;99.90
45096;DHT22;30858;51.108;8.068;2023-02-01T03:55:04;4.60;99.90
45096;DHT22;30858;51.108;8.068;2023-02-01T03:57:33;4.60;99.90
45096;DHT22;30858;51.108;8.068;2023-02-01T04:00:24;4.60;99.90
45096;DHT22;30858;51.108;8.068;2023-02-01T04:02:51;4.60;99.90
45096;DHT22;30858;51.108;8.068;2023-02-01T04:05:17;4.50;99.90
45096;DHT22;30858;51.108;8.068;2023-02-01T04:07:43;4.50;99.90
45096;DHT22;30858;51.108;8.068;2023-02-01T04:10:10;4.50;99.90
45096;DHT22;30858;51.108;8.068;2023-02-01T04:12:35;4.50;99.90
45096;DHT22;30858;51.108;8.068;2023-02-01T04:15:01;4.50;99.90
45096;DHT22;30858;51.108;8.068;2023-02-01T04:17:27;4.50;99.90
45096;DHT22;30858;51.108;8.068;2023-02-01T04:19:53;4.40;99.90
45096;DHT22;30858;51.108;8.068;2023-02-01T04:22:18;4.40;99.90
45096;DHT22;30858;51.108;8.068;2023-02-01T04:24:44;4.30;99.90
45096;DHT22;30858;51.108;8.068;2023-02-01T04:27:09;4.30;99.90
45096;DHT22;30858;51.108;8.068;2023-02-01T04:29:35;4.30;99.90
45096;DHT22;30858;51.108;8.068;2023-02-01T04:32:00;4.20;99.90
45096;DHT22;30858;51.108;8.068;2023-02-01T04:34:26;4.20;99.90
45096;DHT22;30858;51.108;8.068;2023-02-01T04:36:51;4.20;99.90
45096;DHT22;30858;51.108;8.068;2023-02-01T04:39:17;4.10;99.90
45096;DHT22;30858;51.108;8.068;2023-02-01T04:41:43;4.10;99.90
45096;DHT22;30858;51.108;8.068;2023-02-01T04:44:16;4.10;99.90
45096;DHT22;30858;51.108;8.068;2023-02-01T04:46:43;4.10;99.90
45096;DHT22;30858;51.108;8.068;2023-02-01T04:49:09;4.10;99.90
45096;DHT22;30858;51.108;8.068;2023-02-01T04:51:35;4.10;99.90
45096;DHT22;30858;51.108;8.068;2023-02-01T04:54:01;4.10;99.90
45096;DHT22;30858;51.108;8.068;2023-02-01T04:56:27;4.10;99.90
45096;DHT22;30858;51.108;8.068;2023-02-01T04:58:52;4.10;99.90
45096;DHT22;30858;51.108;8.068;2023-02-01T05:01:18;4.20;99.90
45096;DHT22;30858;51.108;8.068;2023-02-01T05:03:44;4.20;99.90
45096;DHT22;30858;51.108;8.068;2023-02-01T05:06:09;4.30;99.90
45096;DHT22;30858;51.108;8.068;2023-02-01T05:08:35;4.20;99.90
45096;DHT22;30858;51.108;8.068;2023-02-01T05:11:01;4.20;99.90
45096;DHT22;30858;51.108;8.068;2023-02-01T05:13:30;4.30;99.90
45096;DHT22;30858;51.108;8.068;2023-02-01T05:16:14;4.40;99.90
45096;DHT22;30858;51.108;8.068;2023-02-01T05:18:39;4.40;99.90
45096;DHT22;30858;51.108;8.068;2023-02-01T05:21:05;4.40;99.90
45096;DHT22;30858;51.108;8.068;2023-02-01T05:23:30;4.40;99.90
45096;DHT22;30858;51.108;8.068;2023-02-01T05:26:00;4.50;99.90
45096;DHT22;30858;51.108;8.068;2023-02-01T05:28:27;4.40;99.90
45096;DHT22;30858;51.108;8.068;2023-02-01T05:30:53;4.40;99.90
45096;DHT22;30858;51.108;8.068;2023-02-01T05:33:18;4.40;99.90
45096;DHT22;30858;51.108;8.068;2023-02-01T05:35:44;4.50;99.90
45096;DHT22;30858;51.108;8.068;2023-02-01T05:38:09;4.50;99.90
45096;DHT22;30858;51.108;8.068;2023-02-01T05:40:35;4.50;99.90
45096;DHT22;30858;51.108;8.068;2023-02-01T05:43:00;4.50;99.90
45096;DHT22;30858;51.108;8.068;2023-02-01T05:45:26;4.50;99.90
45096;DHT22;30858;51.108;8.068;2023-02-01T05:47:51;4.60;99.90
45096;DHT22;30858;51.108;8.068;2023-02-01T05:50:17;4.60;99.90
45096;DHT22;30858;51.108;8.068;2023-02-01T05:52:42;4.60;99.90
45096;DHT22;30858;51.108;8.068;2023-02-01T05:55:08;4.60;99.90
45096;DHT22;30858;51.108;8.068;2023-02-01T05:57:34;4.60;99.90
45096;DHT22;30858;51.108;8.068;2023-02-01T05:59:59;4.60;99.90
45096;DHT22;30858;51.108;8.068;2023-02-01T06:02:25;4.60;99.90
45096;DHT22;30858;51.108;8.068;2023-02-01T06:04:51;4.70;99.90
45096;DHT22;30858;51.108;8.068;2023-02-01T06:07:17;4.70;99.90
45096;DHT22;30858;51.108;8.068;2023-02-01T06:09:42;4.70;99.90
45096;DHT22;30858;51.108;8.068;2023-02-01T06:12:08;4.70;99.90
45096;DHT22;30858;51.108;8.068;2023-02-01T06:14:33;4.70;99.90
45096;DHT22;30858;51.108;8.068;2023-02-01T06:16:59;4.70;99.90
45096;DHT22;30858;51.108;8.068;2023-02-01T06:19:25;4.80;99.90
45096;DHT22;30858;51.108;8.068;2023-02-01T06:21:50;4.80;99.90
45096;DHT22;30858;51.108;8.068;2023-02-01T06:24:16;4.70;99.90
45096;DHT22;30858;51.108;8.068;2023-02-01T06:26:42;4.70;99.90
45096;DHT22;30858;51.108;8.068;2023-02-01T06:29:09;4.70;99.90
45096;DHT22;30858;51.108;8.068;2023-02-01T06:31:35;4.70;99.90
45096;DHT22;30858;51.108;8.068;2023-02-01T06:34:01;4.70;99.90
45096;DHT22;30858;51.108;8.068;2023-02-01T06:36:28;4.70;99.90
45096;DHT22;30858;51.108;8.068;2023-02-01T06:38:53;4.70;99.90
45096;DHT22;30858;51.108;8.068;2023-02-01T06:41:22;4.70;99.90
45096;DHT22;30858;51.108;8.068;2023-02-01T06:43:47;4.70;99.90
45096;DHT22;30858;51.108;8.068;2023-02-01T06:46:13;4.70;99.90
45096;DHT22;30858;51.108;8.068;2023-02-01T06:48:39;4.80;99.90
45096;DHT22;30858;51.108;8.068;2023-02-01T06:51:05;4.70;99.90
45096;DHT22;30858;51.108;8.068;2023-02-01T06:53:31;4.70;99.90
45096;DHT22;30858;51.108;8.068;2023-02-01T06:55:59;4.80;99.90
45096;DHT22;30858;51.108;8.068;2023-02-01T06:58:30;4.80;99.90
45096;DHT22;30858;51.108;8.068;2023-02-01T07:00:55;4.80;99.90
45096;DHT22;30858;51.108;8.068;2023-02-01T07:03:21;4.80;99.90
45096;DHT22;30858;51.108;8.068;2023-02-01T07:05:46;4.80;99.90
45096;DHT22;30858;51.108;8.068;2023-02-01T07:08:12;4.70;99.90
45096;DHT22;30858;51.108;8.068;2023-02-01T07:10:37;4.80;99.90
45096;DHT22;30858;51.108;8.068;2023-02-01T07:13:03;4.80;99.90
45096;DHT22;30858;51.108;8.068;2023-02-01T07:15:29;4.70;99.90
45096;DHT22;30858;51.108;8.068;2023-02-01T07:17:55;4.80;99.90
45096;DHT22;30858;51.108;8.068;2023-02-01T07:20:21;4.80;99.90
45096;DHT22;30858;51.108;8.068;2023-02-01T07:22:46;4.80;99.90
45096;DHT22;30858;51.108;8.068;2023-02-01T07:25:12;4.70;99.90
45096;DHT22;30858;51.108;8.068;2023-02-01T07:27:37;4.70;99.90
45096;DHT22;30858;51.108;8.068;2023-02-01T07:30:06;4.70;99.90
45096;DHT22;30858;51.108;8.068;2023-02-01T07:32:32;4.80;99.90
45096;DHT22;30858;51.108;8.068;2023-02-01T07:34:58;4.70;99.90
45096;DHT22;30858;51.108;8.068;2023-02-01T07:37:24;4.70;99.90
45096;DHT22;30858;51.108;8.068;2023-02-01T07:39:52;4.70;99.90
45096;DHT22;30858;51.108;8.068;2023-02-01T07:42:18;4.70;99.90
45096;DHT22;30858;51.108;8.068;2023-02-01T07:44:44;4.80;99.90
45096;DHT22;30858;51.108;8.068;2023-02-01T07:47:09;4.80;99.90
45096;DHT22;30858;51.108;8.068;2023-02-01T07:49:35;4.80;99.90
45096;DHT22;30858;51.108;8.068;2023-02-01T07:52:00;4.70;99.90
45096;DHT22;30858;51.108;8.068;2023-02-01T07:54:26;4.80;99.90
45096;DHT22;30858;51.108;8.068;2023-02-01T07:56:51;4.80;99.90
45096;DHT22;30858;51.108;8.068;2023-02-01T07:59:17;4.80;99.90
45096;DHT22;30858;51.108;8.068;2023-02-01T08:01:42;4.70;99.90
45096;DHT22;30858;51.108;8.068;2023-02-01T08:04:10;4.80;99.90
45096;DHT22;30858;51.108;8.068;2023-02-01T08:06:36;4.80;99.90
45096;DHT22;30858;51.108;8.068;2023-02-01T08:09:03;4.70;99.90
45096;DHT22;30858;51.108;8.068;2023-02-01T08:11:29;4.80;99.90
45096;DHT22;30858;51.108;8.068;2023-02-01T08:13:55;4.80;99.90
45096;DHT22;30858;51.108;8.068;2023-02-01T08:16:22;4.70;99.90
45096;DHT22;30858;51.108;8.068;2023-02-01T08:18:48;4.70;99.90
45096;DHT22;30858;51.108;8.068;2023-02-01T08:21:18;4.70;99.90
45096;DHT22;30858;51.108;8.068;2023-02-01T08:23:44;4.70;99.90
45096;DHT22;30858;51.108;8.068;2023-02-01T08:28:47;4.70;99.90
45096;DHT22;30858;51.108;8.068;2023-02-01T08:31:15;4.70;99.90
45096;DHT22;30858;51.108;8.068;2023-02-01T08:33:42;4.70;99.90
45096;DHT22;30858;51.108;8.068;2023-02-01T08:36:10;4.70;99.90
45096;DHT22;30858;51.108;8.068;2023-02-01T08:38:37;4.70;99.90
45096;DHT22;30858;51.108;8.068;2023-02-01T08:41:12;4.70;99.90
45096;DHT22;30858;51.108;8.068;2023-02-01T08:43:39;4.70;99.90
45096;DHT22;30858;51.108;8.068;2023-02-01T08:46:05;4.70;99.90
45096;DHT22;30858;51.108;8.068;2023-02-01T08:48:32;4.70;99.90
45096;DHT22;30858;51.108;8.068;2023-02-01T08:51:00;4.70;99.90
45096;DHT22;30858;51.108;8.068;2023-02-01T08:53:25;4.60;99.90
45096;DHT22;30858;51.108;8.068;2023-02-01T08:55:51;4.70;99.90
45096;DHT22;30858;51.108;8.068;2023-02-01T08:58:16;4.60;99.90
45096;DHT22;30858;51.108;8.068;2023-02-01T09:00:43;4.70;99.90
45096;DHT22;30858;51.108;8.068;2023-02-01T09:03:10;4.70;99.90
45096;DHT22;30858;51.108;8.068;2023-02-01T09:05:36;4.70;99.90
45096;DHT22;30858;51.108;8.068;2023-02-01T09:08:02;4.70;99.90
45096;DHT22;30858;51.108;8.068;2023-02-01T09:10:27;4.70;99.90
45096;DHT22;30858;51.108;8.068;2023-02-01T09:12:53;4.70;99.90
45096;DHT22;30858;51.108;8.068;2023-02-01T09:15:18;4.70;99.90
45096;DHT22;30858;51.108;8.068;2023-02-01T09:17:44;4.70;99.90
45096;DHT22;30858;51.108;8.068;2023-02-01T09:20:10;4.70;99.90
45096;DHT22;30858;51.108;8.068;2023-02-01T09:22:35;4.70;99.90
45096;DHT22;30858;51.108;8.068;2023-02-01T09:25:01;4.70;99.90
45096;DHT22;30858;51.108;8.068;2023-02-01T09:27:26;4.70;99.90
45096;DHT22;30858;51.108;8.068;2023-02-01T09:29:52;4.70;99.90
45096;DHT22;30858;51.108;8.068;2023-02-01T09:32:22;4.70;99.90
45096;DHT22;30858;51.108;8.068;2023-02-01T09:34:48;4.70;99.90
45096;DHT22;30858;51.108;8.068;2023-02-01T09:37:14;4.70;99.90
45096;DHT22;30858;51.108;8.068;2023-02-01T09:39:40;4.70;99.90
45096;DHT22;30858;51.108;8.068;2023-02-01T09:45:17;4.70;99.90
45096;DHT22;30858;51.108;8.068;2023-02-01T09:47:54;4.70;99.90
45096;DHT22;30858;51.108;8.068;2023-02-01T09:50:27;4.70;99.90
45096;DHT22;30858;51.108;8.068;2023-02-01T09:53:02;4.70;99.90
45096;DHT22;30858;51.108;8.068;2023-02-01T09:55:43;4.70;99.90
45096;DHT22;30858;51.108;8.068;2023-02-01T09:58:20;4.70;99.90
45096;DHT22;30858;51.108;8.068;2023-02-01T10:00:52;4.80;99.90
45096;DHT22;30858;51.108;8.068;2023-02-01T10:03:18;4.90;99.90
45096;DHT22;30858;51.108;8.068;2023-02-01T10:05:50;4.90;99.90
45096;DHT22;30858;51.108;8.068;2023-02-01T10:11:29;4.90;99.90
45096;DHT22;30858;51.108;8.068;2023-02-01T10:22:45;5.00;99.90
45096;DHT22;30858;51.108;8.068;2023-02-01T10:25:22;5.00;99.90
45096;DHT22;30858;51.108;8.068;2023-02-01T10:27:49;4.90;99.90
45096;DHT22;30858;51.108;8.068;2023-02-01T10:30:27;5.00;99.90
45096;DHT22;30858;51.108;8.068;2023-02-01T10:33:00;5.00;99.90
45096;DHT22;30858;51.108;8.068;2023-02-01T10:35:31;5.00;99.90
45096;DHT22;30858;51.108;8.068;2023-02-01T10:38:01;4.90;99.90
45096;DHT22;30858;51.108;8.068;2023-02-01T10:40:29;4.90;99.90
45096;DHT22;30858;51.108;8.068;2023-02-01T10:42:59;4.90;99.90
45096;DHT22;30858;51.108;8.068;2023-02-01T10:45:27;5.00;99.90
45096;DHT22;30858;51.108;8.068;2023-02-01T10:47:55;4.90;99.90
45096;DHT22;30858;51.108;8.068;2023-02-01T10:53:15;4.90;99.90
45096;DHT22;30858;51.108;8.068;2023-02-01T10:58:19;4.90;99.90
45096;DHT22;30858;51.108;8.068;2023-02-01T11:01:00;4.90;99.90
45096;DHT22;30858;51.108;8.068;2023-02-01T11:08:55;4.90;99.90
45096;DHT22;30858;51.108;8.068;2023-02-01T11:11:21;4.80;99.90
45096;DHT22;30858;51.108;8.068;2023-02-01T11:13:56;4.90;99.90
45096;DHT22;30858;51.108;8.068;2023-02-01T11:16:38;4.90;99.90
45096;DHT22;30858;51.108;8.068;2023-02-01T11:19:04;4.90;99.90
45096;DHT22;30858;51.108;8.068;2023-02-01T11:21:32;4.90;99.90
45096;DHT22;30858;51.108;8.068;2023-02-01T11:24:04;4.90;99.90
45096;DHT22;30858;51.108;8.068;2023-02-01T11:26:31;4.90;99.90
45096;DHT22;30858;51.108;8.068;2023-02-01T11:29:10;4.90;99.90
45096;DHT22;30858;51.108;8.068;2023-02-01T11:31:36;4.90;99.90
45096;DHT22;30858;51.108;8.068;2023-02-01T11:36:35;4.80;99.90
45096;DHT22;30858;51.108;8.068;2023-02-01T11:39:25;4.90;99.90
45096;DHT22;30858;51.108;8.068;2023-02-01T11:44:39;4.90;99.90
45096;DHT22;30858;51.108;8.068;2023-02-01T11:47:28;4.90;99.90
45096;DHT22;30858;51.108;8.068;2023-02-01T11:49:59;4.90;99.90
45096;DHT22;30858;51.108;8.068;2023-02-01T12:01:13;5.00;99.90
45096;DHT22;30858;51.108;8.068;2023-02-01T12:20:55;5.10;99.90
45096;DHT22;30858;51.108;8.068;2023-02-01T12:29:37;5.20;99.90
45096;DHT22;30858;51.108;8.068;2023-02-01T12:43:03;5.30;99.90
45096;DHT22;30858;51.108;8.068;2023-02-01T12:48:30;5.30;99.90
45096;DHT22;30858;51.108;8.068;2023-02-01T12:51:05;5.30;99.90
45096;DHT22;30858;51.108;8.068;2023-02-01T12:53:51;5.30;99.90
45096;DHT22;30858;51.108;8.068;2023-02-01T12:56:35;5.20;99.90
45096;DHT22;30858;51.108;8.068;2023-02-01T12:59:05;5.10;99.90
45096;DHT22;30858;51.108;8.068;2023-02-01T13:01:42;5.00;99.90
45096;DHT22;30858;51.108;8.068;2023-02-01T13:04:35;4.90;99.90
45096;DHT22;30858;51.108;8.068;2023-02-01T13:07:07;4.90;99.90
45096;DHT22;30858;51.108;8.068;2023-02-01T13:09:45;4.70;99.90
45096;DHT22;30858;51.108;8.068;2023-02-01T13:12:40;4.80;99.90
45096;DHT22;30858;51.108;8.068;2023-02-01T13:15:29;4.60;99.90
45096;DHT22;30858;51.108;8.068;2023-02-01T13:18:00;4.70;99.90
45096;DHT22;30858;51.108;8.068;2023-02-01T13:20:32;4.60;99.90
45096;DHT22;30858;51.108;8.068;2023-02-01T13:23:07;4.60;99.90
45096;DHT22;30858;51.108;8.068;2023-02-01T13:25:47;4.60;99.90
45096;DHT22;30858;51.108;8.068;2023-02-01T13:28:16;4.50;99.90
45096;DHT22;30858;51.108;8.068;2023-02-01T13:30:57;4.60;99.90
45096;DHT22;30858;51.108;8.068;2023-02-01T13:41:35;4.70;99.90
45096;DHT22;30858;51.108;8.068;2023-02-01T13:44:12;4.80;99.90
45096;DHT22;30858;51.108;8.068;2023-02-01T13:46:42;4.80;99.90
45096;DHT22;30858;51.108;8.068;2023-02-01T13:49:23;4.80;99.90
45096;DHT22;30858;51.108;8.068;2023-02-01T13:51:56;4.80;99.90
45096;DHT22;30858;51.108;8.068;2023-02-01T13:54:38;4.70;99.90
45096;DHT22;30858;51.108;8.068;2023-02-01T13:57:37;4.80;99.90
45096;DHT22;30858;51.108;8.068;2023-02-01T14:10:55;4.90;99.90
45096;DHT22;30858;51.108;8.068;2023-02-01T14:13:31;4.80;99.90
45096;DHT22;30858;51.108;8.068;2023-02-01T14:23:55;4.80;99.90
45096;DHT22;30858;51.108;8.068;2023-02-01T14:26:41;4.80;99.90
45096;DHT22;30858;51.108;8.068;2023-02-01T14:53:03;4.80;99.90
45096;DHT22;30858;51.108;8.068;2023-02-01T14:55:46;4.60;99.90
45096;DHT22;30858;51.108;8.068;2023-02-01T15:01:02;4.60;99.90
45096;DHT22;30858;51.108;8.068;2023-02-01T15:06:02;4.70;99.90
45096;DHT22;30858;51.108;8.068;2023-02-01T15:08:33;4.70;99.90
45096;DHT22;30858;51.108;8.068;2023-02-01T15:11:15;4.70;99.90
45096;DHT22;30858;51.108;8.068;2023-02-01T15:13:48;4.70;99.90
45096;DHT22;30858;51.108;8.068;2023-02-01T15:16:16;4.70;99.90
45096;DHT22;30858;51.108;8.068;2023-02-01T15:18:42;4.80;99.90
45096;DHT22;30858;51.108;8.068;2023-02-01T15:21:19;4.80;99.90
45096;DHT22;30858;51.108;8.068;2023-02-01T15:23:45;4.80;99.90
45096;DHT22;30858;51.108;8.068;2023-02-01T15:26:27;4.80;99.90
45096;DHT22;30858;51.108;8.068;2023-02-01T15:28:53;4.80;99.90
45096;DHT22;30858;51.108;8.068;2023-02-01T15:31:36;4.90;99.90
45096;DHT22;30858;51.108;8.068;2023-02-01T15:34:02;4.90;99.90
45096;DHT22;30858;51.108;8.068;2023-02-01T15:36:27;4.90;99.90
45096;DHT22;30858;51.108;8.068;2023-02-01T15:39:20;4.90;99.90
45096;DHT22;30858;51.108;8.068;2023-02-01T15:42:08;4.90;99.90
45096;DHT22;30858;51.108;8.068;2023-02-01T15:44:44;4.90;99.90
45096;DHT22;30858;51.108;8.068;2023-02-01T15:47:23;5.00;99.90
45096;DHT22;30858;51.108;8.068;2023-02-01T15:49:52;5.00;99.90
45096;DHT22;30858;51.108;8.068;2023-02-01T15:54:52;5.00;99.90
45096;DHT22;30858;51.108;8.068;2023-02-01T15:57:38;5.00;99.90
45096;DHT22;30858;51.108;8.068;2023-02-01T16:00:22;5.00;99.90
45096;DHT22;30858;51.108;8.068;2023-02-01T16:02:53;5.00;99.90
45096;DHT22;30858;51.108;8.068;2023-02-01T16:05:39;5.00;99.90
45096;DHT22;30858;51.108;8.068;2023-02-01T16:08:14;5.00;99.90
45096;DHT22;30858;51.108;8.068;2023-02-01T16:10:43;5.10;99.90
45096;DHT22;30858;51.108;8.068;2023-02-01T16:13:10;5.10;99.90
45096;DHT22;30858;51.108;8.068;2023-02-01T16:15:36;5.00;99.90
45096;DHT22;30858;51.108;8.068;2023-02-01T16:18:02;5.00;99.90
45096;DHT22;30858;51.108;8.068;2023-02-01T16:20:29;4.90;99.90
45096;DHT22;30858;51.108;8.068;2023-02-01T16:22:55;5.00;99.90
45096;DHT22;30858;51.108;8.068;2023-02-01T16:25:21;5.00;99.90
45096;DHT22;30858;51.108;8.068;2023-02-01T16:27:46;5.00;99.90
45096;DHT22;30858;51.108;8.068;2023-02-01T16:30:12;5.00;99.90
45096;DHT22;30858;51.108;8.068;2023-02-01T16:32:38;5.00;99.90
45096;DHT22;30858;51.108;8.068;2023-02-01T16:35:10;5.00;99.90
45096;DHT22;30858;51.108;8.068;2023-02-01T16:37:38;5.00;99.90
45096;DHT22;30858;51.108;8.068;2023-02-01T16:40:04;5.00;99.90
45096;DHT22;30858;51.108;8.068;2023-02-01T16:42:30;5.00;99.90
45096;DHT22;30858;51.108;8.068;2023-02-01T16:44:56;5.00;99.90
45096;DHT22;30858;51.108;8.068;2023-02-01T16:47:22;5.00;99.90
45096;DHT22;30858;51.108;8.068;2023-02-01T16:49:48;5.00;99.90
45096;DHT22;30858;51.108;8.068;2023-02-01T16:52:23;5.00;99.90
45096;DHT22;30858;51.108;8.068;2023-02-01T16:54:49;5.00;99.90
45096;DHT22;30858;51.108;8.068;2023-02-01T16:57:17;5.00;99.90
45096;DHT22;30858;51.108;8.068;2023-02-01T16:59:43;5.00;99.90
45096;DHT22;30858;51.108;8.068;2023-02-01T17:02:12;5.10;99.90
45096;DHT22;30858;51.108;8.068;2023-02-01T17:04:38;5.00;99.90
45096;DHT22;30858;51.108;8.068;2023-02-01T17:07:03;5.00;99.90
45096;DHT22;30858;51.108;8.068;2023-02-01T17:09:35;5.00;99.90
45096;DHT22;30858;51.108;8.068;2023-02-01T17:12:02;5.10;99.90
45096;DHT22;30858;51.108;8.068;2023-02-01T17:14:31;5.10;99.90
45096;DHT22;30858;51.108;8.068;2023-02-01T17:16:57;5.00;99.90
45096;DHT22;30858;51.108;8.068;2023-02-01T17:19:23;5.10;99.90
45096;DHT22;30858;51.108;8.068;2023-02-01T17:21:50;5.10;99.90
45096;DHT22;30858;51.108;8.068;2023-02-01T17:24:20;5.10;99.90
45096;DHT22;30858;51.108;8.068;2023-02-01T17:26:46;5.20;99.90
45096;DHT22;30858;51.108;8.068;2023-02-01T17:29:12;5.10;99.90
45096;DHT22;30858;51.108;8.068;2023-02-01T17:31:42;5.00;99.90
45096;DHT22;30858;51.108;8.068;2023-02-01T17:34:12;5.00;99.90
45096;DHT22;30858;51.108;8.068;2023-02-01T17:36:40;5.00;99.90
45096;DHT22;30858;51.108;8.068;2023-02-01T17:39:05;4.90;99.90
45096;DHT22;30858;51.108;8.068;2023-02-01T17:41:31;4.90;99.90
45096;DHT22;30858;51.108;8.068;2023-02-01T17:43:57;4.80;99.90
45096;DHT22;30858;51.108;8.068;2023-02-01T17:46:23;4.90;99.90
45096;DHT22;30858;51.108;8.068;2023-02-01T17:48:52;5.00;99.90
45096;DHT22;30858;51.108;8.068;2023-02-01T17:51:24;5.00;99.90
45096;DHT22;30858;51.108;8.068;2023-02-01T17:53:51;5.10;99.90
45096;DHT22;30858;51.108;8.068;2023-02-01T17:56:19;5.10;99.90
45096;DHT22;30858;51.108;8.068;2023-02-01T17:58:45;5.30;99.90
45096;DHT22;30858;51.108;8.068;2023-02-01T18:01:22;5.30;99.90
45096;DHT22;30858;51.108;8.068;2023-02-01T18:03:49;5.40;99.90
45096;DHT22;30858;51.108;8.068;2023-02-01T18:06:22;5.40;99.90
45096;DHT22;30858;51.108;8.068;2023-02-01T18:08:48;5.40;99.90
45096;DHT22;30858;51.108;8.068;2023-02-01T18:11:16;5.60;99.90
45096;DHT22;30858;51.108;8.068;2023-02-01T18:13:42;5.60;99.90
45096;DHT22;30858;51.108;8.068;2023-02-01T18:16:26;5.60;99.90
45096;DHT22;30858;51.108;8.068;2023-02-01T18:18:52;5.60;99.90
45096;DHT22;30858;51.108;8.068;2023-02-01T18:21:20;5.60;99.90
45096;DHT22;30858;51.108;8.068;2023-02-01T18:23:47;5.60;99.90
45096;DHT22;30858;51.108;8.068;2023-02-01T18:26:14;5.60;99.90
45096;DHT22;30858;51.108;8.068;2023-02-01T18:28:41;5.50;99.90
45096;DHT22;30858;51.108;8.068;2023-02-01T18:31:15;5.40;99.90
45096;DHT22;30858;51.108;8.068;2023-02-01T18:33:45;5.00;99.90
45096;DHT22;30858;51.108;8.068;2023-02-01T18:36:12;4.50;99.90
45096;DHT22;30858;51.108;8.068;2023-02-01T18:38:37;4.40;99.90
45096;DHT22;30858;51.108;8.068;2023-02-01T18:41:03;4.30;99.90
45096;DHT22;30858;51.108;8.068;2023-02-01T18:43:30;4.20;99.90
45096;DHT22;30858;51.108;8.068;2023-02-01T18:45:56;4.20;99.90
45096;DHT22;30858;51.108;8.068;2023-02-01T18:48:21;4.20;99.90
45096;DHT22;30858;51.108;8.068;2023-02-01T18:50:47;4.20;99.90
45096;DHT22;30858;51.108;8.068;2023-02-01T18:53:18;4.20;99.90